createdAt,value
2018-04-11T00:01:07.172Z,0
2018-04-11T00:02:16.003Z,0
2018-04-11T00:03:24.839Z,0
2018-04-11T00:04:33.672Z,0
2018-04-11T00:05:42.505Z,0
2018-04-11T00:06:51.446Z,0
2018-04-11T00:08:00.548Z,0
2018-04-11T00:09:09.380Z,0
2018-04-11T00:10:18.212Z,0
2018-04-11T00:11:27.045Z,0
2018-04-11T00:12:35.877Z,0
2018-04-11T00:13:44.987Z,0
2018-04-11T00:14:53.823Z,0
2018-04-11T00:16:02.930Z,0
2018-04-11T00:17:12.039Z,0
2018-04-11T00:18:20.872Z,0
2018-04-11T00:19:29.981Z,0
2018-04-11T00:20:38.813Z,0
2018-04-11T00:21:47.645Z,0
2018-04-11T00:22:56.752Z,0
2018-04-11T00:24:05.641Z,0
2018-04-11T00:25:14.475Z,0
2018-04-11T00:26:23.308Z,0
2018-04-11T00:27:32.415Z,0
2018-04-11T00:28:41.252Z,0
2018-04-11T00:29:50.182Z,0
2018-04-11T00:30:59.012Z,0
2018-04-11T00:32:08.407Z,0
2018-04-11T00:33:17.513Z,0
2018-04-11T00:34:26.344Z,0
2018-04-11T00:35:35.228Z,0
2018-04-11T00:36:44.333Z,0
2018-04-11T00:37:53.163Z,0
2018-04-11T00:39:01.994Z,0
2018-04-11T00:40:10.823Z,0
2018-04-11T00:41:19.652Z,0
2018-04-11T00:42:28.485Z,0
2018-04-11T00:43:37.593Z,0
2018-04-11T00:44:46.423Z,0
2018-04-11T00:45:55.254Z,0
2018-04-11T00:47:04.234Z,0
2018-04-11T00:48:13.341Z,0
2018-04-11T00:49:22.449Z,0
2018-04-11T00:50:31.277Z,0
2018-04-11T00:51:40.109Z,0
2018-04-11T00:52:49.270Z,0
2018-04-11T00:53:58.375Z,0
2018-04-11T00:55:07.205Z,0
2018-04-11T00:56:16.035Z,0
2018-04-11T00:57:25.140Z,0
2018-04-11T00:58:34.124Z,0
2018-04-11T00:59:42.958Z,0
2018-04-11T01:00:52.066Z,0
2018-04-11T01:02:00.896Z,0
2018-04-11T01:03:09.727Z,0
2018-04-11T01:04:18.842Z,0
2018-04-11T01:05:27.672Z,0
2018-04-11T01:06:36.504Z,0
2018-04-11T01:07:45.335Z,0
2018-04-11T01:08:54.165Z,0
2018-04-11T01:10:03.428Z,0
2018-04-11T01:11:12.255Z,0
2018-04-11T01:12:21.362Z,0
2018-04-11T01:13:30.471Z,0
2018-04-11T01:14:39.575Z,0
2018-04-11T01:15:48.409Z,0
2018-04-11T01:16:57.244Z,0
2018-04-11T01:18:06.085Z,0
2018-04-11T01:19:14.911Z,0
2018-04-11T01:20:23.743Z,0
2018-04-11T01:21:32.675Z,0
2018-04-11T01:22:41.786Z,0
2018-04-11T01:23:50.890Z,0
2018-04-11T01:24:59.723Z,0
2018-04-11T01:26:08.830Z,0
2018-04-11T01:27:17.666Z,0
2018-04-11T01:28:26.512Z,0
2018-04-11T01:29:35.615Z,0
2018-04-11T01:30:44.799Z,0
2018-04-11T01:31:53.571Z,0
2018-04-11T01:33:02.403Z,0
2018-04-11T01:34:11.784Z,0
2018-04-11T01:35:20.893Z,0
2018-04-11T01:36:29.728Z,0
2018-04-11T01:37:38.554Z,0
2018-04-11T01:38:47.439Z,0
2018-04-11T01:39:56.266Z,0
2018-04-11T01:41:05.378Z,0
2018-04-11T01:42:14.209Z,0
2018-04-11T01:43:23.315Z,0
2018-04-11T01:44:32.200Z,0
2018-04-11T01:45:41.033Z,0
2018-04-11T01:46:49.870Z,0
2018-04-11T01:47:58.976Z,0
2018-04-11T01:49:08.086Z,0
2018-04-11T01:50:17.288Z,0
2018-04-11T01:51:26.123Z,0
2018-04-11T01:52:35.242Z,0
2018-04-11T01:53:44.081Z,0
2018-04-11T01:54:52.912Z,0
2018-04-11T01:56:02.318Z,0
2018-04-11T01:57:11.149Z,0
2018-04-11T01:58:19.979Z,0
2018-04-11T01:59:28.808Z,0
2018-04-11T02:00:37.923Z,0
2018-04-11T02:01:46.949Z,0
2018-04-11T02:02:55.782Z,0
2018-04-11T02:04:04.621Z,0
2018-04-11T02:05:13.451Z,0
2018-04-11T02:06:22.282Z,0
2018-04-11T02:07:31.216Z,0
2018-04-11T02:08:40.612Z,0
2018-04-11T02:09:49.787Z,0
2018-04-11T02:10:58.620Z,0
2018-04-11T02:12:07.452Z,0
2018-04-11T02:13:16.432Z,0
2018-04-11T02:14:25.258Z,0
2018-04-11T02:15:34.088Z,0
2018-04-11T02:16:42.919Z,0
2018-04-11T02:17:51.749Z,0
2018-04-11T02:19:00.630Z,0
2018-04-11T02:20:09.460Z,0
2018-04-11T02:21:18.568Z,0
2018-04-11T02:22:27.397Z,0
2018-04-11T02:23:36.228Z,0
2018-04-11T02:24:45.337Z,0
2018-04-11T02:25:54.169Z,0
2018-04-11T02:27:03.277Z,0
2018-04-11T02:28:12.111Z,0
2018-04-11T02:29:20.943Z,0
2018-04-11T02:30:30.355Z,0
2018-04-11T02:31:39.472Z,0
2018-04-11T02:32:48.586Z,0
2018-04-11T02:33:57.705Z,0
2018-04-11T02:35:06.537Z,0
2018-04-11T02:36:15.745Z,0
2018-04-11T02:37:25.132Z,0
2018-04-11T02:38:34.234Z,0
2018-04-11T02:39:43.351Z,0
2018-04-11T02:40:52.463Z,0
2018-04-11T02:42:01.597Z,0
2018-04-11T02:43:10.430Z,0
2018-04-11T02:44:19.265Z,0
2018-04-11T02:45:28.656Z,0
2018-04-11T02:46:37.490Z,0
2018-04-11T02:47:46.321Z,0
2018-04-11T02:48:55.429Z,0
2018-04-11T02:50:04.537Z,0
2018-04-11T02:51:13.649Z,0
2018-04-11T02:52:22.476Z,0
2018-04-11T02:53:31.509Z,0
2018-04-11T02:54:40.617Z,0
2018-04-11T02:55:49.450Z,0
2018-04-11T02:56:58.556Z,0
2018-04-11T02:58:07.389Z,0
2018-04-11T02:59:16.819Z,0
2018-04-11T03:00:26.204Z,0
2018-04-11T03:01:35.042Z,0
2018-04-11T03:02:44.710Z,0
2018-04-11T03:03:53.543Z,0
2018-04-11T03:05:02.799Z,0
2018-04-11T03:06:11.629Z,0
2018-04-11T03:07:20.781Z,0
2018-04-11T03:08:29.621Z,0
2018-04-11T03:09:38.452Z,0
2018-04-11T03:10:47.332Z,0
2018-04-11T03:11:56.161Z,0
2018-04-11T03:13:04.993Z,0
2018-04-11T03:14:13.823Z,0
2018-04-11T03:15:22.656Z,0
2018-04-11T03:16:31.858Z,0
2018-04-11T03:17:40.692Z,0
2018-04-11T03:18:49.522Z,0
2018-04-11T03:19:59.178Z,0
2018-04-11T03:21:08.013Z,0
2018-04-11T03:22:16.943Z,0
2018-04-11T03:23:25.772Z,0
2018-04-11T03:24:34.600Z,0
2018-04-11T03:25:43.723Z,0
2018-04-11T03:26:52.562Z,0
2018-04-11T03:28:01.442Z,0
2018-04-11T03:29:10.272Z,0
2018-04-11T03:30:19.659Z,0
2018-04-11T03:31:28.772Z,0
2018-04-11T03:32:37.887Z,0
2018-04-11T03:33:47.066Z,0
2018-04-11T03:34:56.173Z,0
2018-04-11T03:36:05.004Z,0
2018-04-11T03:37:14.125Z,0
2018-04-11T03:38:22.959Z,0
2018-04-11T03:39:32.218Z,0
2018-04-11T03:40:41.605Z,0
2018-04-11T03:41:50.712Z,0
2018-04-11T03:42:59.814Z,0
2018-04-11T03:44:08.645Z,0
2018-04-11T03:45:17.477Z,0
2018-04-11T03:46:26.308Z,0
2018-04-11T03:47:35.141Z,0
2018-04-11T03:48:43.976Z,0
2018-04-11T03:49:52.805Z,0
2018-04-11T03:51:01.969Z,0
2018-04-11T03:52:10.799Z,0
2018-04-11T03:53:19.630Z,0
2018-04-11T03:54:28.736Z,0
2018-04-11T03:55:38.127Z,0
2018-04-11T03:56:47.279Z,0
2018-04-11T03:57:56.111Z,0
2018-04-11T03:59:04.942Z,0
2018-04-11T04:00:13.773Z,0
2018-04-11T04:01:22.880Z,0
2018-04-11T04:02:32.052Z,0
2018-04-11T04:03:41.704Z,0
2018-04-11T04:04:50.538Z,0
2018-04-11T04:05:59.371Z,0
2018-04-11T04:07:08.484Z,0
2018-04-11T04:08:17.637Z,0
2018-04-11T04:09:26.466Z,0
2018-04-11T04:10:35.300Z,0
2018-04-11T04:11:44.130Z,0
2018-04-11T04:12:52.965Z,0
2018-04-11T04:14:02.376Z,0
2018-04-11T04:15:11.481Z,0
2018-04-11T04:16:20.589Z,0
2018-04-11T04:17:29.703Z,0
2018-04-11T04:18:38.533Z,0
2018-04-11T04:19:48.042Z,0
2018-04-11T04:20:56.810Z,0
2018-04-11T04:22:05.640Z,0
2018-04-11T04:23:14.473Z,0
2018-04-11T04:24:23.305Z,0
2018-04-11T04:25:32.513Z,0
2018-04-11T04:26:41.345Z,0
2018-04-11T04:27:50.450Z,0
2018-04-11T04:28:59.281Z,0
2018-04-11T04:30:08.111Z,0
2018-04-11T04:31:17.422Z,0
2018-04-11T04:32:26.533Z,0
2018-04-11T04:33:35.363Z,0
2018-04-11T04:34:44.202Z,5
2018-04-11T04:35:53.579Z,5
2018-04-11T04:37:02.836Z,5
2018-04-11T04:38:11.668Z,5
2018-04-11T04:39:20.771Z,5
2018-04-11T04:40:29.878Z,5
2018-04-11T04:41:38.989Z,5
2018-04-11T04:42:48.299Z,5
2018-04-11T04:43:57.130Z,5
2018-04-11T04:45:05.966Z,5
2018-04-11T04:46:14.801Z,5
2018-04-11T04:47:23.631Z,10
2018-04-11T04:48:32.611Z,10
2018-04-11T04:49:41.440Z,10
2018-04-11T04:50:50.275Z,10
2018-04-11T04:51:59.106Z,10
2018-04-11T04:53:07.940Z,15
2018-04-11T04:54:16.923Z,15
2018-04-11T04:55:25.756Z,15
2018-04-11T04:56:34.585Z,15
2018-04-11T04:57:43.696Z,15
2018-04-11T04:58:52.525Z,20
2018-04-11T05:00:01.358Z,20
2018-04-11T05:01:10.191Z,20
2018-04-11T05:02:19.022Z,25
2018-04-11T05:03:27.860Z,25
2018-04-11T05:04:36.965Z,30
2018-04-11T05:05:45.795Z,30
2018-04-11T05:06:54.627Z,30
2018-04-11T05:08:03.796Z,35
2018-04-11T05:09:12.630Z,35
2018-04-11T05:10:21.474Z,35
2018-04-11T05:11:30.589Z,40
2018-04-11T05:12:39.420Z,40
2018-04-11T05:13:48.532Z,40
2018-04-11T05:14:57.365Z,45
2018-04-11T05:16:06.478Z,45
2018-04-11T05:17:15.305Z,45
2018-04-11T05:18:24.137Z,45
2018-04-11T05:19:32.968Z,50
2018-04-11T05:20:41.803Z,50
2018-04-11T05:21:50.980Z,55
2018-04-11T05:22:59.741Z,55
2018-04-11T05:24:08.572Z,60
2018-04-11T05:25:17.404Z,60
2018-04-11T05:26:26.235Z,60
2018-04-11T05:27:35.066Z,65
2018-04-11T05:28:43.899Z,65
2018-04-11T05:29:52.727Z,65
2018-04-11T05:31:02.012Z,70
2018-04-11T05:32:10.855Z,70
2018-04-11T05:33:19.686Z,75
2018-04-11T05:34:28.789Z,75
2018-04-11T05:35:37.901Z,80
2018-04-11T05:36:46.883Z,80
2018-04-11T05:37:55.717Z,85
2018-04-11T05:39:04.547Z,85
2018-04-11T05:40:13.391Z,85
2018-04-11T05:41:22.216Z,85
2018-04-11T05:42:31.323Z,85
2018-04-11T05:43:40.430Z,90
2018-04-11T05:44:49.260Z,95
2018-04-11T05:45:58.365Z,100
2018-04-11T05:47:07.196Z,105
2018-04-11T05:48:16.028Z,110
2018-04-11T05:49:25.177Z,115
2018-04-11T05:50:33.986Z,115
2018-04-11T05:51:42.819Z,120
2018-04-11T05:52:51.652Z,120
2018-04-11T05:54:00.486Z,125
2018-04-11T05:55:09.417Z,125
2018-04-11T05:56:18.820Z,125
2018-04-11T05:57:27.654Z,130
2018-04-11T05:58:36.488Z,130
2018-04-11T05:59:45.321Z,130
2018-04-11T06:00:54.550Z,135
2018-04-11T06:02:03.626Z,130
2018-04-11T06:03:12.737Z,135
2018-04-11T06:04:21.566Z,140
2018-04-11T06:05:30.399Z,140
2018-04-11T06:06:39.237Z,145
2018-04-11T06:07:48.393Z,150
2018-04-11T06:08:57.499Z,150
2018-04-11T06:10:06.610Z,155
2018-04-11T06:11:15.441Z,155
2018-04-11T06:12:24.277Z,160
2018-04-11T06:13:33.429Z,155
2018-04-11T06:14:42.534Z,165
2018-04-11T06:15:51.648Z,165
2018-04-11T06:17:00.783Z,185
2018-04-11T06:18:10.157Z,200
2018-04-11T06:19:19.293Z,185
2018-04-11T06:20:28.123Z,170
2018-04-11T06:21:36.959Z,165
2018-04-11T06:22:45.795Z,170
2018-04-11T06:23:54.628Z,190
2018-04-11T06:25:03.642Z,200
2018-04-11T06:26:12.752Z,180
2018-04-11T06:27:21.588Z,175
2018-04-11T06:28:30.698Z,195
2018-04-11T06:29:39.813Z,185
2018-04-11T06:30:48.849Z,180
2018-04-11T06:31:58.233Z,175
2018-04-11T06:33:07.065Z,180
2018-04-11T06:34:15.897Z,180
2018-04-11T06:35:24.733Z,175
2018-04-11T06:36:33.969Z,165
2018-04-11T06:37:42.803Z,155
2018-04-11T06:38:51.930Z,155
2018-04-11T06:40:00.746Z,155
2018-04-11T06:41:09.851Z,160
2018-04-11T06:42:18.939Z,165
2018-04-11T06:43:27.768Z,165
2018-04-11T06:44:36.878Z,165
2018-04-11T06:45:45.712Z,160
2018-04-11T06:46:54.823Z,160
2018-04-11T06:48:03.982Z,175
2018-04-11T06:49:12.817Z,190
2018-04-11T06:50:21.648Z,200
2018-04-11T06:51:30.485Z,185
2018-04-11T06:52:39.316Z,180
2018-04-11T06:53:48.147Z,195
2018-04-11T06:54:57.260Z,205
2018-04-11T06:56:06.375Z,210
2018-04-11T06:57:15.206Z,220
2018-04-11T06:58:24.423Z,225
2018-04-11T06:59:33.897Z,220
2018-04-11T07:00:42.726Z,205
2018-04-11T07:01:51.563Z,200
2018-04-11T07:03:00.949Z,195
2018-04-11T07:04:10.059Z,195
2018-04-11T07:05:19.091Z,180
2018-04-11T07:06:27.926Z,170
2018-04-11T07:07:36.758Z,165
2018-04-11T07:08:45.590Z,165
2018-04-11T07:09:54.422Z,170
2018-04-11T07:11:03.259Z,180
2018-04-11T07:12:12.093Z,190
2018-04-11T07:13:21.200Z,190
2018-04-11T07:14:30.031Z,195
2018-04-11T07:15:38.863Z,210
2018-04-11T07:16:48.377Z,230
2018-04-11T07:17:57.212Z,245
2018-04-11T07:19:06.601Z,245
2018-04-11T07:20:15.432Z,235
2018-04-11T07:21:24.538Z,230
2018-04-11T07:22:33.422Z,230
2018-04-11T07:23:42.265Z,220
2018-04-11T07:24:51.369Z,215
2018-04-11T07:26:00.573Z,205
2018-04-11T07:27:09.890Z,205
2018-04-11T07:28:19.051Z,205
2018-04-11T07:29:27.885Z,200
2018-04-11T07:30:36.722Z,205
2018-04-11T07:31:45.554Z,205
2018-04-11T07:32:54.665Z,195
2018-04-11T07:34:03.547Z,185
2018-04-11T07:35:12.380Z,185
2018-04-11T07:36:21.500Z,185
2018-04-11T07:37:30.611Z,190
2018-04-11T07:38:39.444Z,190
2018-04-11T07:39:49.139Z,190
2018-04-11T07:40:57.974Z,195
2018-04-11T07:42:06.808Z,190
2018-04-11T07:43:15.645Z,185
2018-04-11T07:44:24.477Z,190
2018-04-11T07:45:33.684Z,185
2018-04-11T07:46:42.792Z,200
2018-04-11T07:47:51.632Z,200
2018-04-11T07:49:00.462Z,210
2018-04-11T07:50:09.297Z,215
2018-04-11T07:51:18.435Z,215
2018-04-11T07:52:27.269Z,215
2018-04-11T07:53:36.380Z,215
2018-04-11T07:54:45.780Z,215
2018-04-11T07:55:54.613Z,215
2018-04-11T07:57:03.652Z,215
2018-04-11T07:58:12.763Z,220
2018-04-11T07:59:21.601Z,230
2018-04-11T08:00:30.708Z,245
2018-04-11T08:01:39.822Z,265
2018-04-11T08:02:49.042Z,285
2018-04-11T08:03:58.150Z,310
2018-04-11T08:05:06.994Z,315
2018-04-11T08:06:15.828Z,305
2018-04-11T08:07:24.664Z,295
2018-04-11T08:08:33.780Z,305
2018-04-11T08:09:43.722Z,330
2018-04-11T08:10:52.834Z,355
2018-04-11T08:12:01.673Z,370
2018-04-11T08:13:11.060Z,370
2018-04-11T08:14:20.043Z,370
2018-04-11T08:15:29.448Z,365
2018-04-11T08:16:38.563Z,370
2018-04-11T08:17:47.398Z,375
2018-04-11T08:18:56.506Z,395
2018-04-11T08:20:05.438Z,390
2018-04-11T08:21:14.273Z,370
2018-04-11T08:22:23.659Z,350
2018-04-11T08:23:32.496Z,340
2018-04-11T08:24:41.332Z,335
2018-04-11T08:25:50.539Z,330
2018-04-11T08:26:59.372Z,340
2018-04-11T08:28:08.205Z,360
2018-04-11T08:29:17.042Z,390
2018-04-11T08:30:26.147Z,415
2018-04-11T08:31:35.965Z,410
2018-04-11T08:32:44.799Z,400
2018-04-11T08:33:53.913Z,385
2018-04-11T08:35:03.032Z,390
2018-04-11T08:36:12.143Z,375
2018-04-11T08:37:20.989Z,365
2018-04-11T08:38:29.817Z,380
2018-04-11T08:39:38.649Z,400
2018-04-11T08:40:47.536Z,420
2018-04-11T08:41:56.371Z,435
2018-04-11T08:43:05.261Z,445
2018-04-11T08:44:14.460Z,425
2018-04-11T08:45:23.567Z,400
2018-04-11T08:46:32.402Z,400
2018-04-11T08:47:41.240Z,430
2018-04-11T08:48:50.453Z,445
2018-04-11T08:49:59.286Z,425
2018-04-11T08:51:08.122Z,420
2018-04-11T08:52:16.959Z,420
2018-04-11T08:53:25.795Z,410
2018-04-11T08:54:34.728Z,410
2018-04-11T08:55:43.560Z,410
2018-04-11T08:56:52.394Z,415
2018-04-11T08:58:01.227Z,410
2018-04-11T08:59:10.066Z,400
2018-04-11T09:00:18.905Z,400
2018-04-11T09:01:28.011Z,415
2018-04-11T09:02:36.848Z,445
2018-04-11T09:03:45.962Z,485
2018-04-11T09:04:54.798Z,465
2018-04-11T09:06:03.781Z,455
2018-04-11T09:07:12.616Z,455
2018-04-11T09:08:21.451Z,435
2018-04-11T09:09:30.560Z,430
2018-04-11T09:10:39.396Z,430
2018-04-11T09:11:48.331Z,420
2018-04-11T09:12:57.164Z,400
2018-04-11T09:14:06.004Z,410
2018-04-11T09:15:14.835Z,435
2018-04-11T09:16:23.670Z,445
2018-04-11T09:17:32.608Z,450
2018-04-11T09:18:41.447Z,445
2018-04-11T09:19:50.280Z,450
2018-04-11T09:20:59.487Z,465
2018-04-11T09:22:08.329Z,440
2018-04-11T09:23:17.264Z,420
2018-04-11T09:24:26.375Z,430
2018-04-11T09:25:35.212Z,450
2018-04-11T09:26:44.047Z,455
2018-04-11T09:27:52.887Z,450
2018-04-11T09:29:01.823Z,455
2018-04-11T09:30:10.660Z,460
2018-04-11T09:31:19.495Z,460
2018-04-11T09:32:28.331Z,460
2018-04-11T09:33:37.438Z,455
2018-04-11T09:34:46.851Z,460
2018-04-11T09:35:55.695Z,485
2018-04-11T09:37:04.535Z,500
2018-04-11T09:38:13.364Z,505
2018-04-11T09:39:22.201Z,505
2018-04-11T09:40:31.438Z,510
2018-04-11T09:41:40.276Z,500
2018-04-11T09:42:49.386Z,490
2018-04-11T09:43:58.499Z,485
2018-04-11T09:45:07.607Z,480
2018-04-11T09:46:16.818Z,480
2018-04-11T09:47:25.652Z,450
2018-04-11T09:48:34.766Z,420
2018-04-11T09:49:43.610Z,415
2018-04-11T09:50:52.440Z,420
2018-04-11T09:52:01.582Z,425
2018-04-11T09:53:11.247Z,430
2018-04-11T09:54:20.086Z,435
2018-04-11T09:55:28.923Z,440
2018-04-11T09:56:38.037Z,435
2018-04-11T09:57:46.921Z,445
2018-04-11T09:58:56.030Z,460
2018-04-11T10:00:04.867Z,470
2018-04-11T10:01:13.983Z,465
2018-04-11T10:02:22.821Z,465
2018-04-11T10:03:31.857Z,475
2018-04-11T10:04:40.690Z,485
2018-04-11T10:05:49.526Z,510
2018-04-11T10:06:58.709Z,525
2018-04-11T10:08:07.883Z,530
2018-04-11T10:09:16.769Z,535
2018-04-11T10:10:25.604Z,535
2018-04-11T10:11:34.718Z,530
2018-04-11T10:12:43.835Z,530
2018-04-11T10:13:52.674Z,525
2018-04-11T10:15:01.754Z,500
2018-04-11T10:16:10.593Z,485
2018-04-11T10:17:19.429Z,465
2018-04-11T10:18:28.266Z,465
2018-04-11T10:19:37.647Z,475
2018-04-11T10:20:46.636Z,485
2018-04-11T10:21:55.471Z,485
2018-04-11T10:23:04.683Z,480
2018-04-11T10:24:13.525Z,500
2018-04-11T10:25:22.367Z,505
2018-04-11T10:26:31.599Z,515
2018-04-11T10:27:40.435Z,535
2018-04-11T10:28:49.822Z,545
2018-04-11T10:29:58.660Z,545
2018-04-11T10:31:07.504Z,555
2018-04-11T10:32:16.492Z,560
2018-04-11T10:33:25.331Z,570
2018-04-11T10:34:34.167Z,585
2018-04-11T10:35:43.001Z,620
2018-04-11T10:36:51.839Z,620
2018-04-11T10:38:00.824Z,600
2018-04-11T10:39:10.213Z,580
2018-04-11T10:40:19.052Z,565
2018-04-11T10:41:28.162Z,555
2018-04-11T10:42:36.999Z,560
2018-04-11T10:43:45.934Z,565
2018-04-11T10:44:54.772Z,580
2018-04-11T10:46:03.611Z,605
2018-04-11T10:47:12.447Z,625
2018-04-11T10:48:21.285Z,635
2018-04-11T10:49:30.223Z,625
2018-04-11T10:50:39.341Z,610
2018-04-11T10:51:48.448Z,595
2018-04-11T10:52:57.565Z,615
2018-04-11T10:54:06.403Z,620
2018-04-11T10:55:15.442Z,620
2018-04-11T10:56:24.278Z,615
2018-04-11T10:57:33.114Z,635
2018-04-11T10:58:42.236Z,635
2018-04-11T10:59:51.114Z,630
2018-04-11T11:01:00.282Z,630
2018-04-11T11:02:09.117Z,640
2018-04-11T11:03:17.973Z,655
2018-04-11T11:04:26.810Z,660
2018-04-11T11:05:35.647Z,650
2018-04-11T11:06:44.697Z,675
2018-04-11T11:07:53.538Z,740
2018-04-11T11:09:02.430Z,765
2018-04-11T11:10:11.268Z,725
2018-04-11T11:11:20.107Z,675
2018-04-11T11:12:29.154Z,630
2018-04-11T11:13:38.269Z,600
2018-04-11T11:14:47.107Z,575
2018-04-11T11:15:56.017Z,575
2018-04-11T11:17:04.856Z,560
2018-04-11T11:18:14.203Z,545
2018-04-11T11:19:23.095Z,525
2018-04-11T11:20:31.956Z,525
2018-04-11T11:21:40.811Z,520
2018-04-11T11:22:49.990Z,530
2018-04-11T11:23:58.797Z,535
2018-04-11T11:25:07.634Z,545
2018-04-11T11:26:16.801Z,565
2018-04-11T11:27:25.669Z,565
2018-04-11T11:28:34.527Z,545
2018-04-11T11:29:43.417Z,550
2018-04-11T11:30:52.813Z,540
2018-04-11T11:32:01.698Z,535
2018-04-11T11:33:10.536Z,570
2018-04-11T11:34:19.395Z,560
2018-04-11T11:35:28.387Z,580
2018-04-11T11:36:37.220Z,665
2018-04-11T11:37:46.059Z,645
2018-04-11T11:38:54.895Z,630
2018-04-11T11:40:04.345Z,685
2018-04-11T11:41:13.489Z,670
2018-04-11T11:42:22.351Z,630
2018-04-11T11:43:31.192Z,650
2018-04-11T11:44:40.112Z,690
2018-04-11T11:45:49.229Z,645
2018-04-11T11:46:58.481Z,655
2018-04-11T11:48:07.330Z,635
2018-04-11T11:49:16.172Z,595
2018-04-11T11:50:25.035Z,670
2018-04-11T11:51:33.874Z,670
2018-04-11T11:52:43.192Z,675
2018-04-11T11:53:52.031Z,670
2018-04-11T11:55:01.144Z,650
2018-04-11T11:56:10.561Z,705
2018-04-11T11:57:19.996Z,715
2018-04-11T11:58:29.165Z,1905
2018-04-11T11:59:38.003Z,1145
2018-04-11T12:00:47.397Z,1665
2018-04-11T12:01:56.238Z,1070
2018-04-11T12:03:05.351Z,2155
2018-04-11T12:04:14.767Z,2555
2018-04-11T12:05:23.619Z,2330
2018-04-11T12:06:32.449Z,1910
2018-04-11T12:07:41.289Z,1795
2018-04-11T12:08:50.135Z,2050
2018-04-11T12:09:59.074Z,1915
2018-04-11T12:11:08.192Z,2045
2018-04-11T12:12:17.035Z,1865
2018-04-11T12:13:25.875Z,2100
2018-04-11T12:14:34.714Z,1930
2018-04-11T12:15:44.028Z,2045
2018-04-11T12:16:52.871Z,1145
2018-04-11T12:18:01.709Z,2215
2018-04-11T12:19:10.553Z,1885
2018-04-11T12:20:19.393Z,1605
2018-04-11T12:21:28.386Z,1780
2018-04-11T12:22:37.227Z,1980
2018-04-11T12:23:46.081Z,2545
2018-04-11T12:24:54.923Z,2235
2018-04-11T12:26:03.767Z,2005
2018-04-11T12:27:13.039Z,2210
2018-04-11T12:28:21.891Z,2100
2018-04-11T12:29:31.036Z,2080
2018-04-11T12:30:40.434Z,2255
2018-04-11T12:31:49.279Z,2405
2018-04-11T12:32:58.129Z,2480
2018-04-11T12:34:06.974Z,1920
2018-04-11T12:35:16.092Z,2125
2018-04-11T12:36:24.937Z,1760
2018-04-11T12:37:34.136Z,1640
2018-04-11T12:38:43.081Z,1950
2018-04-11T12:39:51.924Z,1915
2018-04-11T12:41:01.042Z,1865
2018-04-11T12:42:10.159Z,1405
2018-04-11T12:43:19.282Z,2135
2018-04-11T12:44:28.406Z,2405
2018-04-11T12:45:37.251Z,2020
2018-04-11T12:46:46.387Z,1865
2018-04-11T12:47:55.231Z,1195
2018-04-11T12:49:04.072Z,1930
2018-04-11T12:50:13.118Z,1585
2018-04-11T12:51:21.961Z,1170
2018-04-11T12:52:31.087Z,1500
2018-04-11T12:53:39.931Z,1475
2018-04-11T12:54:49.321Z,1410
2018-04-11T12:55:58.165Z,1260
2018-04-11T12:57:07.012Z,1520
2018-04-11T12:58:15.851Z,1820
2018-04-11T12:59:24.696Z,1800
2018-04-11T13:00:33.815Z,2235
2018-04-11T13:01:42.806Z,1890
2018-04-11T13:02:51.649Z,1560
2018-04-11T13:04:00.493Z,1765
2018-04-11T13:05:09.340Z,1920
2018-04-11T13:06:18.736Z,2090
2018-04-11T13:07:27.726Z,2330
2018-04-11T13:08:36.878Z,1985
2018-04-11T13:09:46.002Z,1440
2018-04-11T13:10:54.851Z,1935
2018-04-11T13:12:03.702Z,1505
2018-04-11T13:13:13.241Z,1420
2018-04-11T13:14:22.085Z,1975
2018-04-11T13:15:31.213Z,1620
2018-04-11T13:16:40.065Z,2165
2018-04-11T13:17:49.181Z,1855
2018-04-11T13:18:58.084Z,1550
2018-04-11T13:20:06.938Z,1815
2018-04-11T13:21:15.779Z,2045
2018-04-11T13:22:24.723Z,2490
2018-04-11T13:23:33.567Z,1955
2018-04-11T13:24:42.905Z,1700
2018-04-11T13:25:52.410Z,1495
2018-04-11T13:27:01.263Z,1095
2018-04-11T13:28:10.398Z,2040
2018-04-11T13:29:19.517Z,2620
2018-04-11T13:30:28.761Z,1740
2018-04-11T13:31:37.660Z,1505
2018-04-11T13:32:46.454Z,1285
2018-04-11T13:33:55.299Z,1585
2018-04-11T13:35:04.420Z,1625
2018-04-11T13:36:13.739Z,1695
2018-04-11T13:37:22.586Z,2200
2018-04-11T13:38:31.431Z,2450
2018-04-11T13:39:40.553Z,2515
2018-04-11T13:40:49.400Z,2350
2018-04-11T13:41:58.497Z,2280
2018-04-11T13:43:07.341Z,1990
2018-04-11T13:44:16.186Z,1870
2018-04-11T13:45:25.587Z,2000
2018-04-11T13:46:34.709Z,2265
2018-04-11T13:47:43.555Z,2205
2018-04-11T13:48:52.404Z,2560
2018-04-11T13:50:01.526Z,2535
2018-04-11T13:51:10.654Z,2650
2018-04-11T13:52:19.503Z,2610
2018-04-11T13:53:28.784Z,2585
2018-04-11T13:54:37.632Z,2690
2018-04-11T13:55:47.038Z,2630
2018-04-11T13:56:56.158Z,2675
2018-04-11T13:58:05.008Z,2670
2018-04-11T13:59:13.906Z,2500
2018-04-11T14:00:22.753Z,2330
2018-04-11T14:01:31.876Z,2360
2018-04-11T14:02:41.003Z,2200
2018-04-11T14:03:49.851Z,2515
2018-04-11T14:04:58.702Z,2655
2018-04-11T14:06:07.549Z,2695
2018-04-11T14:07:16.397Z,2600
2018-04-11T14:08:25.625Z,2645
2018-04-11T14:09:34.759Z,2610
2018-04-11T14:10:43.609Z,2500
2018-04-11T14:11:52.460Z,2650
2018-04-11T14:13:01.586Z,2560
2018-04-11T14:14:10.435Z,2460
2018-04-11T14:15:19.287Z,2540
2018-04-11T14:16:28.140Z,2575
2018-04-11T14:17:37.264Z,2500
2018-04-11T14:18:46.120Z,2560
2018-04-11T14:19:55.018Z,2555
2018-04-11T14:21:03.851Z,2460
2018-04-11T14:22:12.952Z,2590
2018-04-11T14:23:21.800Z,2605
2018-04-11T14:24:30.652Z,2585
2018-04-11T14:25:39.781Z,2620
2018-04-11T14:26:48.632Z,2565
2018-04-11T14:27:57.481Z,2500
2018-04-11T14:29:06.331Z,2555
2018-04-11T14:30:15.337Z,2505
2018-04-11T14:31:24.183Z,2550
2018-04-11T14:32:33.309Z,2485
2018-04-11T14:33:42.435Z,2475
2018-04-11T14:34:51.287Z,2555
2018-04-11T14:36:00.186Z,2605
2018-04-11T14:37:09.037Z,2590
2018-04-11T14:38:17.892Z,2610
2018-04-11T14:39:26.744Z,2535
2018-04-11T14:40:35.594Z,2460
2018-04-11T14:41:44.545Z,2470
2018-04-11T14:42:53.673Z,2405
2018-04-11T14:44:02.523Z,2405
2018-04-11T14:45:11.647Z,2395
2018-04-11T14:46:20.768Z,2325
2018-04-11T14:47:29.624Z,2415
2018-04-11T14:48:38.473Z,2280
2018-04-11T14:49:47.325Z,2390
2018-04-11T14:50:56.174Z,2385
2018-04-11T14:52:05.024Z,2360
2018-04-11T14:53:14.425Z,2285
2018-04-11T14:54:23.280Z,2335
2018-04-11T14:55:32.129Z,2335
2018-04-11T14:56:40.989Z,2200
2018-04-11T14:57:49.841Z,2125
2018-04-11T14:58:58.693Z,2175
2018-04-11T15:00:07.590Z,2120
2018-04-11T15:01:16.672Z,2255
2018-04-11T15:02:25.590Z,2135
2018-04-11T15:03:34.723Z,2085
2018-04-11T15:04:43.575Z,1945
2018-04-11T15:05:52.431Z,2055
2018-04-11T15:07:01.328Z,2035
2018-04-11T15:08:10.459Z,1970
2018-04-11T15:09:19.305Z,2035
2018-04-11T15:10:28.152Z,2065
2018-04-11T15:11:37.277Z,1960
2018-04-11T15:12:46.319Z,1950
2018-04-11T15:13:55.721Z,1920
2018-04-11T15:15:04.850Z,1915
2018-04-11T15:16:13.977Z,1900
2018-04-11T15:17:23.380Z,1870
2018-04-11T15:18:32.278Z,1885
2018-04-11T15:19:41.126Z,1830
2018-04-11T15:20:49.977Z,1825
2018-04-11T15:21:58.828Z,1940
2018-04-11T15:23:07.678Z,1910
2018-04-11T15:24:16.528Z,1890
2018-04-11T15:25:25.656Z,1925
2018-04-11T15:26:34.784Z,1850
2018-04-11T15:27:43.661Z,1860
2018-04-11T15:28:52.482Z,1850
2018-04-11T15:30:01.432Z,1865
2018-04-11T15:31:10.282Z,1880
2018-04-11T15:32:19.406Z,1780
2018-04-11T15:33:28.255Z,1825
2018-04-11T15:34:37.109Z,1850
2018-04-11T15:35:45.957Z,1800
2018-04-11T15:36:54.813Z,1750
2018-04-11T15:38:03.658Z,1690
2018-04-11T15:39:12.513Z,1715
2018-04-11T15:40:21.354Z,1665
2018-04-11T15:41:30.481Z,1625
2018-04-11T15:42:39.619Z,1655
2018-04-11T15:43:48.469Z,1695
2018-04-11T15:44:57.319Z,1675
2018-04-11T15:46:06.722Z,1625
2018-04-11T15:47:15.769Z,1635
2018-04-11T15:48:24.617Z,1620
2018-04-11T15:49:33.468Z,1610
2018-04-11T15:50:42.359Z,1620
2018-04-11T15:51:51.165Z,1590
2018-04-11T15:53:00.222Z,1535
2018-04-11T15:54:09.344Z,1545
2018-04-11T15:55:18.198Z,1540
2018-04-11T15:56:27.382Z,1445
2018-04-11T15:57:36.229Z,1465
2018-04-11T15:58:45.277Z,1505
2018-04-11T15:59:54.126Z,1510
2018-04-11T16:01:02.977Z,1475
2018-04-11T16:02:11.827Z,1480
2018-04-11T16:03:20.676Z,1395